Time;durP1;ratioP1;P1;durP2;ratioP2;P2;SDS_P1;SDS_P2;PMS_P1;PMS_P2;Temp;Humidity;BMP_temperature;BMP_pressure;BME280_temperature;BME280_humidity;BME280_pressure;Samples;Min_cycle;Max_cycle;Signal;HPM_P1;HPM_P2
2021/07/27 00:01:10;;;;;;;64.10;36.03;;;;;;;17.68;86.19;101047.34;10457563;28;20048;-61
2021/07/27 00:06:13;;;;;;;56.80;33.80;;;;;;;17.76;85.47;101051.03;10457525;28;20061;-61
2021/07/27 00:11:15;;;;;;;65.13;35.85;;;;;;;17.75;85.85;101044.06;10457144;28;20064;-60
2021/07/27 00:16:17;;;;;;;55.63;30.55;;;;;;;18.07;83.72;101052.94;10456579;28;20409;-60
2021/07/27 00:21:20;;;;;;;61.65;35.97;;;;;;;17.69;85.22;101049.88;10456906;28;20048;-61
2021/07/27 00:26:24;;;;;;;60.78;34.35;;;;;;;17.71;85.56;101047.94;10456806;28;20064;-61
2021/07/27 00:31:28;;;;;;;61.42;34.85;;;;;;;17.87;84.78;101052.81;10456695;28;20059;-60
2021/07/27 00:36:30;;;;;;;59.67;34.70;;;;;;;17.89;84.21;101056.19;10456256;28;20091;-61
2021/07/27 00:41:34;;;;;;;74.07;39.10;;;;;;;17.82;85.78;101066.41;10456298;28;20055;-61
2021/07/27 00:46:36;;;;;;;66.40;34.05;;;;;;;17.89;85.77;101069.44;10456295;28;20067;-60
2021/07/27 00:51:40;;;;;;;55.42;34.67;;;;;;;17.86;83.62;101058.22;10455118;28;20041;-61
2021/07/27 00:56:42;;;;;;;74.03;42.38;;;;;;;17.83;85.56;101061.94;10455660;28;20041;-61
2021/07/27 01:01:44;;;;;;;62.25;34.38;;;;;;;18.04;83.95;101055.84;10455502;28;20056;-60
2021/07/27 01:06:47;;;;;;;79.93;43.22;;;;;;;17.77;85.54;101062.44;10464318;28;20048;-60
2021/07/27 01:11:49;;;;;;;75.82;39.50;;;;;;;18.07;84.45;101060.88;10462793;28;20056;-61
2021/07/27 01:16:53;;;;;;;71.80;42.92;;;;;;;17.83;85.11;101062.78;10463385;28;20060;-61
2021/07/27 01:38:20;;;;;;;79.72;47.85;;;;;;;17.55;85.40;101037.78;10462878;28;20056;-61
2021/07/27 01:43:28;;;;;;;63.92;39.72;;;;;;;17.80;83.92;101025.13;10463290;28;20048;-60
2021/07/27 01:48:31;;;;;;;73.13;43.35;;;;;;;17.82;83.87;101029.34;10462420;28;20064;-60
2021/07/27 01:53:44;;;;;;;64.90;38.63;;;;;;;17.56;85.16;101017.44;10462361;28;20060;-59
2021/07/27 01:58:49;;;;;;;74.80;45.75;;;;;;;17.60;84.83;101009.13;10462100;28;20044;-60
2021/07/27 02:03:51;;;;;;;74.10;45.95;;;;;;;17.68;83.83;101008.47;10461953;28;20489;-60
2021/07/27 02:08:55;;;;;;;66.70;42.83;;;;;;;17.62;83.49;101009.00;10460477;28;20053;-61
2021/07/27 02:13:57;;;;;;;70.55;42.60;;;;;;;17.69;83.68;101009.31;10459526;28;20053;-59
2021/07/27 02:19:00;;;;;;;86.07;48.85;;;;;;;17.46;84.08;101010.25;10461140;28;20492;-61
2021/07/27 02:24:03;;;;;;;77.72;49.40;;;;;;;17.40;83.65;101015.22;10461133;28;20425;-61
2021/07/27 02:29:05;;;;;;;88.53;52.22;;;;;;;17.26;85.17;101008.44;10460895;28;20044;-61
2021/07/27 02:34:08;;;;;;;97.90;54.05;;;;;;;17.27;85.61;101013.59;10460927;28;20053;-60
2021/07/27 02:39:10;;;;;;;94.22;54.40;;;;;;;17.25;85.95;101020.00;10460426;28;20119;-61
2021/07/27 02:44:13;;;;;;;87.57;52.90;;;;;;;17.13;86.58;101020.97;10461027;28;20052;-60
2021/07/27 02:49:16;;;;;;;108.40;54.38;;;;;;;17.14;86.71;101023.50;10460008;28;20049;-61
2021/07/27 02:54:18;;;;;;;91.47;51.22;;;;;;;16.95;87.17;101025.97;10461246;28;20045;-61
2021/07/27 02:59:20;;;;;;;104.28;52.67;;;;;;;16.85;87.43;101034.63;10459589;28;20045;-60
2021/07/27 03:04:23;;;;;;;94.40;52.08;;;;;;;16.88;87.61;101036.22;10459686;28;20048;-60
2021/07/27 03:09:29;;;;;;;124.05;56.50;;;;;;;16.76;87.62;101034.50;10459608;28;20049;-59
2021/07/27 03:14:31;;;;;;;99.18;52.65;;;;;;;16.77;87.50;101039.66;10459324;28;20045;-60
2021/07/27 03:19:34;;;;;;;105.20;53.95;;;;;;;16.58;87.54;101045.59;10459112;28;20092;-60
2021/07/27 03:24:36;;;;;;;96.50;49.47;;;;;;;16.74;86.98;101045.19;10457424;28;20405;-59
2021/07/27 03:29:38;;;;;;;79.85;42.60;;;;;;;16.81;87.11;101048.19;10458438;28;20382;-60
2021/07/27 03:34:44;;;;;;;111.05;53.78;;;;;;;16.68;87.34;101043.06;10458659;28;20049;-60
2021/07/27 03:39:49;;;;;;;84.35;50.88;;;;;;;16.58;87.84;101048.22;10458083;28;20045;-60
2021/07/27 03:44:55;;;;;;;88.80;44.15;;;;;;;16.80;86.86;101044.72;10456762;28;20049;-60
2021/07/27 03:49:57;;;;;;;75.60;47.13;;;;;;;16.69;87.09;101050.88;10456517;28;20049;-61
2021/07/27 03:55:00;;;;;;;79.13;47.88;;;;;;;16.65;87.78;101052.06;10456139;28;20048;-59
2021/07/27 04:00:03;;;;;;;85.35;44.88;;;;;;;16.93;87.58;101049.03;10457434;28;20052;-60
2021/07/27 04:05:06;;;;;;;68.90;44.08;;;;;;;16.71;87.72;101051.59;10457887;28;20045;-61
2021/07/27 04:10:09;;;;;;;75.05;45.50;;;;;;;16.96;87.45;101044.34;10457068;28;20405;-59
2021/07/27 04:15:14;;;;;;;72.47;43.45;;;;;;;16.85;86.93;101044.38;10457034;28;20045;-60
2021/07/27 04:20:16;;;;;;;51.97;34.40;;;;;;;17.01;85.58;101043.97;10457173;28;20044;-59
2021/07/27 04:25:19;;;;;;;55.40;37.60;;;;;;;17.14;83.52;101041.19;10456834;28;20056;-60
2021/07/27 04:30:21;;;;;;;57.70;37.35;;;;;;;17.13;84.92;101044.78;10457084;28;20060;-60
2021/07/27 04:35:23;;;;;;;50.95;34.70;;;;;;;17.06;85.21;101034.72;10456044;28;20115;-60
2021/07/27 04:40:26;;;;;;;61.47;38.85;;;;;;;16.99;85.69;101035.34;10456152;28;20071;-61
2021/07/27 04:45:28;;;;;;;57.03;39.22;;;;;;;16.99;86.23;101045.91;10455222;28;20049;-60
2021/07/27 04:50:31;;;;;;;58.97;36.10;;;;;;;17.18;84.32;101034.66;10456273;28;20050;-60
2021/07/27 04:55:33;;;;;;;37.05;26.02;;;;;;;17.44;82.94;101041.31;10456006;28;20520;-61
2021/07/27 05:00:35;;;;;;;44.60;30.52;;;;;;;17.07;85.20;101033.75;10455879;28;20526;-60
2021/07/27 05:05:38;;;;;;;55.58;34.30;;;;;;;17.07;86.25;101030.25;10455818;28;20575;-60
2021/07/27 05:10:44;;;;;;;47.80;31.90;;;;;;;17.14;84.86;101044.66;10456245;28;20056;-60
2021/07/27 05:15:46;;;;;;;37.75;25.55;;;;;;;17.18;84.41;101037.31;10454919;28;20048;-60
2021/07/27 05:20:48;;;;;;;42.40;26.80;;;;;;;17.15;84.70;101034.94;10455864;28;20060;-60
2021/07/27 05:25:50;;;;;;;51.08;30.92;;;;;;;17.03;86.24;101027.03;10455560;28;20049;-60
2021/07/27 05:30:53;;;;;;;37.95;27.27;;;;;;;17.34;83.72;101039.56;10455938;28;20060;-61
2021/07/27 05:35:55;;;;;;;56.28;32.85;;;;;;;17.05;86.33;101033.03;10455008;28;20489;-60
2021/07/27 05:40:57;;;;;;;50.85;33.58;;;;;;;17.11;86.63;101026.38;10455337;28;20045;-60
2021/07/27 05:46:02;;;;;;;50.53;31.05;;;;;;;17.25;86.19;101026.13;10455133;28;20051;-59
2021/07/27 05:51:04;;;;;;;45.17;31.20;;;;;;;17.52;84.75;101038.03;10458243;28;20045;-61
2021/07/27 05:56:07;;;;;;;54.47;31.52;;;;;;;17.25;86.57;101035.88;10462359;28;20049;-61
2021/07/27 06:01:10;;;;;;;44.90;27.65;;;;;;;17.61;85.17;101033.78;10462145;28;20045;-60
2021/07/27 06:06:12;;;;;;;47.67;31.83;;;;;;;17.39;86.12;101035.56;10460592;28;20374;-60
2021/07/27 06:11:15;;;;;;;38.72;24.83;;;;;;;17.90;84.69;101023.41;10461718;28;20078;-61
2021/07/27 06:16:17;;;;;;;41.47;29.38;;;;;;;17.59;85.48;101035.72;10461502;28;20045;-61
2021/07/27 06:21:20;;;;;;;31.55;22.02;;;;;;;18.21;81.51;101034.06;10460133;28;20557;-61
2021/07/27 06:26:22;;;;;;;32.45;24.27;;;;;;;18.25;83.55;101048.72;10461028;28;20045;-60
2021/07/27 06:31:24;;;;;;;38.85;26.52;;;;;;;18.27;83.38;101045.94;10461047;28;20386;-60
2021/07/27 06:36:28;;;;;;;37.53;26.42;;;;;;;18.42;84.24;101052.56;10460320;28;20057;-60
2021/07/27 06:41:30;;;;;;;38.47;28.10;;;;;;;18.31;82.85;101056.13;10460330;28;20048;-59
2021/07/27 06:46:33;;;;;;;41.72;27.10;;;;;;;18.11;83.59;101046.41;10459224;28;20056;-60
2021/07/27 06:51:35;;;;;;;31.40;25.05;;;;;;;18.26;82.40;101049.56;10460027;28;20478;-61
2021/07/27 06:56:37;;;;;;;41.58;25.60;;;;;;;18.59;81.69;101068.81;10460528;28;20045;-62
2021/07/27 07:01:40;;;;;;;33.72;24.45;;;;;;;18.88;83.10;101061.00;10459233;28;20478;-60
2021/07/27 07:06:42;;;;;;;31.25;22.17;;;;;;;18.52;81.69;101073.81;10459628;28;20187;-59
2021/07/27 07:11:45;;;;;;;37.50;25.50;;;;;;;18.14;82.62;101076.13;10459522;28;20051;-60
2021/07/27 07:16:47;;;;;;;51.20;27.80;;;;;;;18.41;82.65;101085.34;10458898;28;20047;-60
2021/07/27 07:21:49;;;;;;;30.95;22.58;;;;;;;18.81;80.82;101081.88;10457762;28;20041;-60
2021/07/27 07:26:52;;;;;;;36.42;26.42;;;;;;;18.63;81.72;101079.03;10458607;28;20044;-60
2021/07/27 07:31:54;;;;;;;35.72;25.17;;;;;;;18.49;82.36;101076.72;10458862;28;20049;-61
2021/07/27 07:36:57;;;;;;;40.72;25.30;;;;;;;18.62;82.16;101071.19;10458125;28;20044;-60
2021/07/27 07:41:59;;;;;;;32.10;22.90;;;;;;;18.53;80.71;101076.31;10458075;28;20448;-61
2021/07/27 07:47:03;;;;;;;35.00;23.42;;;;;;;18.41;81.36;101079.19;10457728;28;20576;-61
2021/07/27 07:52:05;;;;;;;39.75;27.20;;;;;;;18.23;81.96;101079.81;10458582;28;20052;-60
2021/07/27 07:57:08;;;;;;;32.90;23.98;;;;;;;18.74;82.45;101076.28;10456114;28;20059;-60
2021/07/27 08:02:10;;;;;;;33.97;25.17;;;;;;;18.53;83.17;101083.44;10457624;28;20040;-61
2021/07/27 08:07:12;;;;;;;43.08;23.25;;;;;;;18.98;80.89;101075.13;10457270;28;20049;-60
2021/07/27 08:12:16;;;;;;;35.35;23.65;;;;;;;19.57;80.51;101061.88;10456637;28;20048;-60
2021/07/27 08:17:18;;;;;;;33.22;22.27;;;;;;;19.71;79.49;101061.47;10456418;28;20448;-61
2021/07/27 08:22:20;;;;;;;33.03;20.95;;;;;;;19.59;78.79;101052.81;10457233;28;20053;-60
2021/07/27 08:27:23;;;;;;;26.13;22.30;;;;;;;19.94;80.51;101055.88;10455642;28;20056;-60
2021/07/27 08:32:26;;;;;;;32.88;23.13;;;;;;;19.53;80.00;101055.19;10455474;28;20045;-60
2021/07/27 08:37:28;;;;;;;29.55;22.55;;;;;;;20.25;79.60;101061.81;10456698;28;20049;-61
2021/07/27 08:42:31;;;;;;;27.85;21.20;;;;;;;21.40;72.62;101046.34;10456294;28;20045;-61
2021/07/27 08:47:34;;;;;;;22.08;18.80;;;;;;;22.10;72.72;101059.72;10454882;28;20431;-60
2021/07/27 08:52:37;;;;;;;25.40;19.67;;;;;;;21.53;72.91;101049.50;10456335;28;20045;-60
2021/07/27 08:57:47;;;;;;;22.38;18.05;;;;;;;21.43;73.54;101051.38;10454979;28;20049;-61
2021/07/27 09:02:50;;;;;;;21.30;19.00;;;;;;;20.82;72.89;101060.91;10456674;28;20041;-60
2021/07/27 09:08:01;;;;;;;24.35;18.70;;;;;;;21.46;72.75;101054.56;10456010;28;20049;-61
2021/07/27 09:13:08;;;;;;;17.27;15.48;;;;;;;22.96;69.06;101036.63;10455822;28;20041;-61
2021/07/27 09:18:15;;;;;;;19.85;14.73;;;;;;;22.97;65.45;101040.97;10455856;28;20072;-61
2021/07/27 09:23:19;;;;;;;17.70;14.55;;;;;;;22.35;66.94;101054.59;10457472;28;20132;-62
2021/07/27 09:28:22;;;;;;;14.55;11.98;;;;;;;22.92;64.18;101043.28;10463313;28;20053;-60
2021/07/27 09:33:34;;;;;;;16.10;13.05;;;;;;;22.25;68.74;101031.47;10463544;28;20052;-60
2021/07/27 09:38:38;;;;;;;11.52;10.38;;;;;;;23.03;66.58;101028.78;10462120;28;20049;-62
2021/07/27 09:43:41;;;;;;;13.50;11.40;;;;;;;22.81;65.37;101041.75;10463178;28;20056;-61
2021/07/27 09:48:45;;;;;;;16.33;12.07;;;;;;;23.02;67.93;101048.50;10461407;28;20083;-61
2021/07/27 09:53:49;;;;;;;15.18;11.25;;;;;;;23.10;64.55;101044.03;10462440;28;20071;-61
2021/07/27 09:58:51;;;;;;;16.23;12.07;;;;;;;23.15;62.77;101036.38;10460941;28;20124;-62
2021/07/27 10:04:03;;;;;;;14.20;11.60;;;;;;;22.88;64.09;101039.25;10462381;28;20049;-61
2021/07/27 10:09:05;;;;;;;14.10;12.07;;;;;;;22.46;65.44;101054.31;10460622;28;20052;-62
2021/07/27 10:14:17;;;;;;;12.57;11.05;;;;;;;24.07;62.93;101051.38;10460415;28;20477;-61
2021/07/27 10:19:22;;;;;;;14.80;12.23;;;;;;;23.39;62.11;101057.94;10460227;28;20397;-61
2021/07/27 10:24:35;;;;;;;18.17;11.55;;;;;;;23.35;62.42;101052.06;10461099;28;20056;-64
2021/07/27 10:29:38;;;;;;;16.35;12.07;;;;;;;23.40;62.46;101052.38;10460059;28;20056;-63
2021/07/27 10:34:41;;;;;;;15.63;11.32;;;;;;;23.47;62.11;101049.88;10442049;28;20059;-64
2021/07/27 10:39:53;;;;;;;14.00;10.20;;;;;;;23.41;62.91;101058.59;10460904;28;20049;-63
2021/07/27 10:44:55;;;;;;;11.80;10.07;;;;;;;23.16;61.66;101061.22;10460561;28;20059;-63
2021/07/27 10:50:04;;;;;;;12.25;8.88;;;;;;;23.28;63.60;101056.41;10459323;28;20045;-63
2021/07/27 10:55:08;;;;;;;14.88;10.57;;;;;;;23.08;63.19;101056.72;10460195;28;20052;-63
2021/07/27 11:00:11;;;;;;;9.85;8.88;;;;;;;23.89;61.60;101060.44;10458549;28;20049;-62
2021/07/27 11:05:24;;;;;;;12.73;8.90;;;;;;;23.87;59.35;101061.59;10459594;28;20613;-65
2021/07/27 11:10:29;;;;;;;10.77;9.32;;;;;;;23.11;62.22;101053.69;10459908;28;20083;-64
2021/07/27 11:15:31;;;;;;;11.18;9.35;;;;;;;22.97;61.01;101057.00;10459252;28;20133;-63
2021/07/27 11:20:38;;;;;;;10.73;9.57;;;;;;;22.86;61.29;101058.09;10459765;28;20060;-64
2021/07/27 11:25:41;;;;;;;12.70;10.27;;;;;;;23.10;61.01;101056.53;10459051;28;20055;-62
2021/07/27 11:30:44;;;;;;;10.10;8.65;;;;;;;23.10;62.94;101065.41;10457647;28;20055;-64
2021/07/27 11:35:48;;;;;;;13.18;10.52;;;;;;;23.16;63.00;101061.22;10456907;28;20420;-63
2021/07/27 11:41:06;;;;;;;11.38;9.63;;;;;;;23.37;62.06;101069.59;10457200;28;20049;-63
2021/07/27 11:46:16;;;;;;;12.15;7.90;;;;;;;21.46;65.89;101105.16;10458421;28;20063;-63
2021/07/27 11:51:29;;;;;;;5.55;4.13;;;;;;;19.98;73.35;101113.06;10458048;28;20056;-65
2021/07/27 11:56:32;;;;;;;4.78;3.50;;;;;;;20.33;69.80;101107.13;10457935;28;20049;-65
2021/07/27 12:01:42;;;;;;;3.40;2.92;;;;;;;19.91;71.66;101111.97;10457460;28;20052;-63
2021/07/27 12:06:52;;;;;;;4.53;3.28;;;;;;;20.11;71.43;101107.47;10457240;28;20057;-65
2021/07/27 12:11:54;;;;;;;3.72;3.33;;;;;;;20.18;70.43;101098.75;10457188;28;20056;-64
2021/07/27 12:16:57;;;;;;;4.80;2.85;;;;;;;20.72;70.84;101095.53;10455726;28;20053;-65
2021/07/27 12:21:59;;;;;;;4.55;3.25;;;;;;;20.09;72.95;101088.16;10455885;28;20102;-66
2021/07/27 12:27:01;;;;;;;5.38;3.47;;;;;;;20.38;71.21;101078.28;10456655;28;20120;-64
2021/07/27 12:32:04;;;;;;;7.43;3.35;;;;;;;21.37;69.47;101066.16;10456673;28;20646;-65
2021/07/27 12:37:09;;;;;;;5.45;2.97;;;;;;;23.17;65.68;101058.38;10456527;28;20508;-64
2021/07/27 12:42:12;;;;;;;12.23;4.05;;;;;;;24.06;61.56;101055.91;10456498;28;20052;-65
2021/07/27 12:47:14;;;;;;;4.90;3.30;;;;;;;24.17;60.08;101049.34;10456480;28;20049;-63
2021/07/27 12:52:16;;;;;;;6.60;3.60;;;;;;;24.51;58.70;101036.69;10454962;28;20049;-64
2021/07/27 12:57:19;;;;;;;3.95;3.20;;;;;;;23.95;62.07;101023.34;10456036;28;20489;-64
2021/07/27 13:02:24;;;;;;;4.28;3.53;;;;;;;23.65;60.47;101025.69;10464502;28;20128;-64
2021/07/27 13:07:27;;;;;;;3.97;3.30;;;;;;;23.47;62.68;101026.69;10464555;28;20049;-64
2021/07/27 13:12:30;;;;;;;5.57;3.35;;;;;;;24.77;61.49;101017.69;10462801;28;20405;-63
2021/07/27 13:17:32;;;;;;;5.38;3.85;;;;;;;23.93;59.23;101026.19;10463800;28;20536;-64
2021/07/27 13:22:35;;;;;;;7.45;3.70;;;;;;;24.27;61.07;101015.19;10463804;28;20135;-63
2021/07/27 13:27:37;;;;;;;5.45;3.85;;;;;;;25.16;61.00;101006.88;10463560;28;20044;-63
2021/07/27 13:32:40;;;;;;;7.00;5.93;;;;;;;24.58;58.44;101021.63;10463331;28;20419;-64
2021/07/27 13:37:43;;;;;;;8.30;7.30;;;;;;;25.66;56.26;100995.78;10462484;28;20061;-63
2021/07/27 13:42:45;;;;;;;10.85;7.53;;;;;;;26.53;54.66;100989.78;10462767;28;20511;-62
2021/07/27 13:47:47;;;;;;;7.70;6.22;;;;;;;27.08;51.25;100992.03;10462772;28;20052;-65
2021/07/27 13:52:50;;;;;;;5.25;4.72;;;;;;;26.58;51.86;100973.09;10462850;28;20052;-64
2021/07/27 13:57:52;;;;;;;7.68;5.72;;;;;;;25.09;57.14;100970.28;10462277;28;20404;-66
2021/07/27 14:02:55;;;;;;;7.22;6.53;;;;;;;23.64;58.26;100979.41;10462260;28;20056;-63
2021/07/27 14:07:57;;;;;;;7.30;6.20;;;;;;;24.32;58.50;100995.97;10461636;28;20505;-65
2021/07/27 14:12:59;;;;;;;9.63;6.20;;;;;;;23.53;60.26;100995.78;10460281;28;20055;-63
2021/07/27 14:18:02;;;;;;;7.72;5.78;;;;;;;23.71;60.48;100988.41;10461119;28;20412;-64
2021/07/27 14:23:04;;;;;;;16.08;8.07;;;;;;;22.52;65.46;101013.63;10461426;28;20397;-66
2021/07/27 14:28:07;;;;;;;20.92;10.85;;;;;;;21.38;72.89;101005.72;10461396;28;20044;-62
2021/07/27 14:33:11;;;;;;;15.50;10.70;;;;;;;21.16;76.38;100970.59;10460902;28;20405;-63
2021/07/27 14:38:15;;;;;;;18.85;10.68;;;;;;;20.87;76.71;100961.00;10460843;28;20508;-63
2021/07/27 14:43:17;;;;;;;11.00;7.50;;;;;;;21.24;76.27;100946.69;10461765;28;20128;-63
2021/07/27 14:48:23;;;;;;;11.05;7.35;;;;;;;20.84;75.82;100958.66;10460427;28;20045;-63
2021/07/27 14:53:26;;;;;;;9.25;7.00;;;;;;;21.47;75.92;100956.91;10459028;28;20404;-63
2021/07/27 14:58:28;;;;;;;9.18;7.55;;;;;;;22.00;75.63;100963.88;10458886;28;20060;-63
2021/07/27 15:03:31;;;;;;;11.40;7.43;;;;;;;22.19;75.41;100959.28;10460383;28;20045;-60
2021/07/27 15:08:34;;;;;;;8.50;7.60;;;;;;;21.23;77.71;100958.34;10459748;28;20049;-61
2021/07/27 15:13:36;;;;;;;10.40;9.35;;;;;;;19.74;84.20;100964.72;10458239;28;20488;-60
2021/07/27 15:18:39;;;;;;;8.48;7.60;;;;;;;20.55;81.20;100956.16;10458926;28;20045;-61
2021/07/27 15:23:44;;;;;;;15.15;9.25;;;;;;;20.44;81.16;100933.25;10458729;28;20095;-62
2021/07/27 15:28:47;;;;;;;10.98;8.48;;;;;;;20.35;82.15;100936.81;10459286;28;20052;-62
2021/07/27 15:33:49;;;;;;;12.93;9.70;;;;;;;20.97;80.47;100953.78;10458722;28;20049;-63
2021/07/27 15:38:51;;;;;;;12.48;10.50;;;;;;;20.18;81.67;100955.22;10458419;28;20417;-64
2021/07/27 15:43:54;;;;;;;11.15;9.13;;;;;;;20.08;83.86;100941.13;10458333;28;20055;-62
2021/07/27 15:48:56;;;;;;;12.85;8.63;;;;;;;20.59;81.65;100928.25;10457763;28;20396;-62
2021/07/27 15:53:58;;;;;;;11.18;10.00;;;;;;;20.53;81.61;100924.38;10457813;28;20425;-63
2021/07/27 15:59:01;;;;;;;16.25;11.05;;;;;;;20.03;84.72;100920.31;10457469;28;20049;-62
2021/07/27 16:04:04;;;;;;;11.43;9.48;;;;;;;20.61;82.22;100913.00;10458011;28;20049;-62
2021/07/27 16:09:06;;;;;;;24.98;15.50;;;;;;;20.64;82.10;100917.22;10457435;28;20056;-63
2021/07/27 16:14:09;;;;;;;30.33;18.52;;;;;;;20.44;84.09;100913.81;10457088;28;20051;-61
2021/07/27 16:19:11;;;;;;;23.40;17.40;;;;;;;20.21;85.94;100917.72;10457052;28;20044;-62
2021/07/27 16:24:13;;;;;;;23.35;17.10;;;;;;;20.05;85.81;100888.28;10457092;28;20048;-62
2021/07/27 16:29:16;;;;;;;10.38;8.82;;;;;;;19.38;80.86;100909.56;10457215;28;20056;-63
2021/07/27 16:34:18;;;;;;;16.70;14.13;;;;;;;19.59;81.71;100921.84;10454579;28;20045;-63
2021/07/27 16:39:20;;;;;;;15.65;13.98;;;;;;;19.59;83.78;100920.03;10456806;28;20049;-62
2021/07/27 16:44:23;;;;;;;16.27;11.65;;;;;;;19.22;86.24;100934.06;10455420;28;20056;-62
2021/07/27 16:49:25;;;;;;;21.98;16.33;;;;;;;19.74;84.05;100940.81;10455108;28;20547;-62
2021/07/27 16:54:27;;;;;;;18.73;16.17;;;;;;;19.70;85.05;100939.44;10456227;28;20489;-62
2021/07/27 16:59:30;;;;;;;29.05;20.60;;;;;;;19.55;84.49;100945.22;10455926;28;20041;-63
2021/07/27 17:04:33;;;;;;;31.95;20.02;;;;;;;19.45;85.45;100954.97;10454974;28;20053;-63
2021/07/27 17:09:35;;;;;;;23.42;15.55;;;;;;;18.83;84.70;100947.34;10455930;28;20053;-63
2021/07/27 17:14:37;;;;;;;20.90;16.25;;;;;;;18.67;85.59;100947.00;10455412;28;20485;-62
2021/07/27 17:19:51;;;;;;;16.90;11.68;;;;;;;17.90;84.68;100917.47;10454883;28;20095;-61
2021/07/27 17:24:54;;;;;;;15.48;12.20;;;;;;;18.09;85.81;100916.72;10455614;28;20045;-63
2021/07/27 17:29:56;;;;;;;14.90;11.88;;;;;;;17.81;86.69;100916.41;10455621;28;20049;-62
2021/07/27 17:35:07;;;;;;;15.52;12.43;;;;;;;18.20;86.72;100908.66;10455203;28;20068;-62
2021/07/27 17:40:09;;;;;;;15.03;11.07;;;;;;;17.96;86.19;100916.94;10455372;28;20060;-62
2021/07/27 17:45:12;;;;;;;12.20;9.82;;;;;;;17.86;85.51;100913.38;10458463;28;20053;-62
2021/07/27 17:50:15;;;;;;;13.43;9.15;;;;;;;17.65;85.42;100916.06;10462905;28;20483;-62
2021/07/27 17:55:17;;;;;;;10.30;8.85;;;;;;;17.94;85.93;100916.25;10462347;28;20045;-62
2021/07/27 18:00:20;;;;;;;10.20;8.43;;;;;;;18.06;85.68;100906.38;10462687;28;20045;-62
2021/07/27 18:05:22;;;;;;;15.13;8.80;;;;;;;18.09;85.83;100900.81;10461995;28;20045;-62
2021/07/27 18:10:24;;;;;;;8.55;7.47;;;;;;;17.50;85.20;100910.28;10462013;28;20053;-62
2021/07/27 18:15:27;;;;;;;10.38;8.52;;;;;;;17.64;85.81;100915.22;10444560;28;20049;-62
2021/07/27 18:20:30;;;;;;;9.50;6.75;;;;;;;17.49;84.48;100915.72;10461683;28;20057;-63
2021/07/27 18:25:34;;;;;;;8.85;6.55;;;;;;;17.51;85.52;100906.66;10461188;28;20045;-62
2021/07/27 18:30:36;;;;;;;11.35;7.00;;;;;;;17.59;86.11;100911.31;10461086;28;20555;-63
2021/07/27 18:35:39;;;;;;;8.23;7.18;;;;;;;17.67;85.56;100905.34;10460886;28;20413;-63
2021/07/27 18:40:41;;;;;;;15.00;8.25;;;;;;;17.74;86.12;100904.69;10460869;28;20048;-63
2021/07/27 18:45:43;;;;;;;16.33;9.07;;;;;;;17.59;86.46;100906.00;10460672;28;20057;-64
2021/07/27 18:50:46;;;;;;;12.55;9.77;;;;;;;17.28;87.27;100890.06;10461187;28;20056;-63
2021/07/27 18:55:48;;;;;;;8.85;7.20;;;;;;;17.35;85.00;100904.47;10458292;28;20050;-63
2021/07/27 19:00:50;;;;;;;10.85;7.88;;;;;;;17.40;84.20;100915.50;10459559;28;20053;-63
2021/07/27 19:05:53;;;;;;;14.80;9.93;;;;;;;17.22;86.93;100928.47;10459902;28;20095;-62
2021/07/27 19:10:55;;;;;;;18.88;11.90;;;;;;;17.37;87.60;100909.66;10459692;28;20059;-63
2021/07/27 19:15:57;;;;;;;14.23;10.07;;;;;;;17.30;87.05;100916.41;10459225;28;20535;-62
2021/07/27 19:21:00;;;;;;;12.63;9.55;;;;;;;17.41;86.69;100921.63;10459326;28;20045;-63
2021/07/27 19:26:02;;;;;;;14.57;9.93;;;;;;;17.12;87.83;100922.28;10458443;28;20052;-62
2021/07/27 19:31:05;;;;;;;15.82;11.10;;;;;;;17.46;86.34;100975.03;10458950;28;20052;-62
2021/07/27 19:36:07;;;;;;;13.93;8.88;;;;;;;17.38;86.21;100965.09;10458149;28;20057;-62
2021/07/27 19:41:17;;;;;;;13.70;9.82;;;;;;;17.36;86.86;100979.41;10458387;28;20053;-61
2021/07/27 19:51:42;;;;;;;11.35;8.70;;;;;;;17.27;86.11;100973.91;10458142;28;20045;-62
2021/07/27 19:56:44;;;;;;;9.10;8.02;;;;;;;17.17;86.81;100986.22;10457755;28;20052;-63
2021/07/27 20:01:47;;;;;;;13.30;9.68;;;;;;;17.19;88.01;100989.56;10458038;28;20052;-63
2021/07/27 20:06:50;;;;;;;11.50;8.68;;;;;;;17.12;87.13;100987.56;10456842;28;20443;-62
2021/07/27 20:11:53;;;;;;;13.48;9.50;;;;;;;16.95;86.95;100989.78;10456182;28;20404;-62
2021/07/27 20:16:55;;;;;;;11.05;8.48;;;;;;;16.94;87.19;100998.66;10457416;28;20051;-62
2021/07/27 20:21:59;;;;;;;13.23;9.82;;;;;;;16.87;86.52;100994.84;10457084;28;20049;-63
2021/07/27 20:27:01;;;;;;;11.10;8.55;;;;;;;16.90;87.30;100994.63;10457048;28;20053;-62
2021/07/27 20:32:04;;;;;;;16.17;10.27;;;;;;;17.01;87.76;100991.94;10456944;28;20052;-62
2021/07/27 20:37:06;;;;;;;11.10;8.35;;;;;;;17.07;86.88;100994.06;10456484;28;20152;-62
2021/07/27 20:42:09;;;;;;;9.88;8.13;;;;;;;16.87;87.95;100990.41;10456469;28;20058;-63
2021/07/27 20:47:27;;;;;;;13.50;9.63;;;;;;;16.53;88.45;100993.06;10455667;28;20084;-62
2021/07/27 20:52:30;;;;;;;10.27;8.10;;;;;;;16.67;87.01;100980.56;10456055;28;20559;-62
2021/07/27 20:57:33;;;;;;;12.13;8.75;;;;;;;16.82;87.59;100989.06;10455638;28;20051;-62
2021/07/27 21:02:36;;;;;;;11.05;8.68;;;;;;;16.64;87.34;100980.81;10456712;28;20056;-61
2021/07/27 21:07:39;;;;;;;10.95;8.65;;;;;;;16.69;87.86;100973.34;10455972;28;20072;-63
2021/07/27 21:12:41;;;;;;;11.80;9.38;;;;;;;16.61;86.83;100973.97;10455279;28;20045;-63
2021/07/27 21:17:44;;;;;;;12.57;9.65;;;;;;;16.49;87.68;100974.94;10455647;28;20049;-62
2021/07/27 21:22:46;;;;;;;13.23;9.98;;;;;;;16.28;88.63;100970.41;10463421;28;20056;-63
2021/07/27 21:27:48;;;;;;;13.88;9.73;;;;;;;16.53;88.22;100960.53;10463475;28;20049;-61
2021/07/27 21:32:51;;;;;;;15.55;11.27;;;;;;;16.27;87.98;100965.22;10464078;28;20048;-62
2021/07/27 21:37:54;;;;;;;13.90;10.63;;;;;;;16.26;88.31;100966.22;10463228;28;20588;-62
2021/07/27 21:42:57;;;;;;;15.75;10.65;;;;;;;16.14;88.45;100970.66;10462007;28;20059;-63
2021/07/27 21:47:59;;;;;;;15.13;10.88;;;;;;;16.17;88.49;100970.38;10462754;28;20057;-62
2021/07/27 21:53:01;;;;;;;19.83;12.70;;;;;;;16.15;88.83;100972.31;10461780;28;20049;-63
2021/07/27 21:58:04;;;;;;;17.50;9.40;;;;;;;16.42;88.14;100969.28;10462587;28;20513;-63
2021/07/27 22:03:06;;;;;;;16.13;11.55;;;;;;;16.39;88.45;100992.47;10462534;28;20052;-63
2021/07/27 22:08:09;;;;;;;17.60;11.85;;;;;;;16.31;88.32;100993.94;10460821;28;20412;-63
2021/07/27 22:13:11;;;;;;;9.70;8.00;;;;;;;16.56;87.79;100984.06;10462180;28;20052;-62
2021/07/27 22:18:14;;;;;;;17.77;11.70;;;;;;;16.68;88.22;100984.91;10461754;28;20053;-63
2021/07/27 22:23:17;;;;;;;15.02;10.18;;;;;;;16.41;87.59;100979.97;10461783;28;20057;-63
2021/07/27 22:28:20;;;;;;;14.90;10.65;;;;;;;16.45;88.14;100974.34;10461320;28;20048;-63
2021/07/27 22:33:22;;;;;;;12.35;9.15;;;;;;;16.68;87.48;100969.03;10460668;28;20051;-60
2021/07/27 22:38:24;;;;;;;20.25;12.32;;;;;;;16.21;88.99;100958.63;10460749;28;20056;-62
2021/07/27 22:43:27;;;;;;;18.67;11.60;;;;;;;16.22;88.01;100962.09;10460827;28;20052;-62
2021/07/27 22:48:29;;;;;;;12.20;10.82;;;;;;;16.49;88.16;100957.28;10460108;28;20048;-62
2021/07/27 22:53:31;;;;;;;18.17;14.55;;;;;;;16.37;87.70;100960.06;10460394;28;20045;-62
2021/07/27 22:58:35;;;;;;;21.65;13.85;;;;;;;16.49;87.66;100948.50;10460064;28;20060;-61
2021/07/27 23:03:38;;;;;;;19.55;12.90;;;;;;;16.19;88.53;100957.06;10460210;28;20045;-62
2021/07/27 23:08:40;;;;;;;22.05;14.80;;;;;;;16.32;87.76;100947.22;10459575;28;20051;-63